首页
METAR-TAF:

METAR-TAF

机场 :

館山, 日本

纬度: 34-59N, 经度: 139-50E, 海拔: 3米

当前天气观测

该预报发布于3小时和52分钟前的11:18 UTC
风速15节,风向西南,有时为28节阵风
温度 17°C
湿度 63%
气压 1012 hPa
能见度10公里或以上
少量云层高于3000英尺

METAR: RJTE 081118Z 23015G28KT 9999 FEW030 17/10 Q1012 RMK 1CU030 A2991

时间: 00:10 (15:10 UTC)


TAF: 丢失

超过4000个机场的气象观测和天气预报(METAR&TAF报告)。

可查询的气象台以黄色和红色小点在地图上表示。

将鼠标移到小点上方,可查看气象台名称。

然后点击查看天气观测和预报。

如需切换地图:点击带黑十字的绿色按钮放大地图;点击带横线的绿色按钮缩小地图;或者点击绿色箭头查看邻近地区的地图。


METAR-TAF: